sensor_id;sensor_type;location;lat;lon;timestamp;P1;durP1;ratioP1;P2;durP2;ratioP2
69417;SDS011;56610;48.872;2.400;2023-02-23T00:01:49;9.35;;;8.55;;
69417;SDS011;56610;48.872;2.400;2023-02-23T00:04:15;8.93;;;8.13;;
69417;SDS011;56610;48.872;2.400;2023-02-23T00:06:42;9.13;;;8.32;;
69417;SDS011;56610;48.872;2.400;2023-02-23T00:09:08;8.88;;;8.18;;
69417;SDS011;56610;48.872;2.400;2023-02-23T00:11:46;9.43;;;8.38;;
69417;SDS011;56610;48.872;2.400;2023-02-23T00:14:15;8.15;;;7.53;;
69417;SDS011;56610;48.872;2.400;2023-02-23T00:16:40;9.30;;;8.40;;
69417;SDS011;56610;48.872;2.400;2023-02-23T00:19:09;12.80;;;9.73;;
69417;SDS011;56610;48.872;2.400;2023-02-23T00:21:38;11.05;;;9.93;;
69417;SDS011;56610;48.872;2.400;2023-02-23T00:24:08;10.40;;;9.50;;
69417;SDS011;56610;48.872;2.400;2023-02-23T00:26:37;10.30;;;9.18;;
69417;SDS011;56610;48.872;2.400;2023-02-23T00:29:07;10.18;;;9.18;;
69417;SDS011;56610;48.872;2.400;2023-02-23T00:31:37;9.20;;;8.40;;
69417;SDS011;56610;48.872;2.400;2023-02-23T00:34:04;10.50;;;9.50;;
69417;SDS011;56610;48.872;2.400;2023-02-23T00:36:31;10.45;;;9.50;;
69417;SDS011;56610;48.872;2.400;2023-02-23T00:38:58;10.45;;;9.48;;
69417;SDS011;56610;48.872;2.400;2023-02-23T00:41:45;10.52;;;9.35;;
69417;SDS011;56610;48.872;2.400;2023-02-23T00:44:11;10.85;;;9.75;;
69417;SDS011;56610;48.872;2.400;2023-02-23T00:46:39;11.18;;;10.25;;
69417;SDS011;56610;48.872;2.400;2023-02-23T00:51:33;10.77;;;9.85;;
69417;SDS011;56610;48.872;2.400;2023-02-23T00:53:58;11.95;;;10.82;;
69417;SDS011;56610;48.872;2.400;2023-02-23T00:56:25;11.65;;;10.70;;
69417;SDS011;56610;48.872;2.400;2023-02-23T00:58:51;11.25;;;10.25;;
69417;SDS011;56610;48.872;2.400;2023-02-23T01:01:17;12.75;;;11.65;;
69417;SDS011;56610;48.872;2.400;2023-02-23T01:03:43;12.20;;;11.10;;
69417;SDS011;56610;48.872;2.400;2023-02-23T01:06:11;13.02;;;11.82;;
69417;SDS011;56610;48.872;2.400;2023-02-23T01:08:43;13.32;;;12.02;;
69417;SDS011;56610;48.872;2.400;2023-02-23T01:11:11;13.68;;;12.48;;
69417;SDS011;56610;48.872;2.400;2023-02-23T01:13:39;14.23;;;12.93;;
69417;SDS011;56610;48.872;2.400;2023-02-23T01:16:07;14.05;;;12.60;;
69417;SDS011;56610;48.872;2.400;2023-02-23T01:18:36;14.02;;;12.82;;
69417;SDS011;56610;48.872;2.400;2023-02-23T01:21:03;16.55;;;12.80;;
69417;SDS011;56610;48.872;2.400;2023-02-23T01:23:29;15.07;;;13.52;;
69417;SDS011;56610;48.872;2.400;2023-02-23T01:25:55;13.38;;;12.13;;
69417;SDS011;56610;48.872;2.400;2023-02-23T01:28:24;13.57;;;12.32;;
69417;SDS011;56610;48.872;2.400;2023-02-23T01:30:49;14.88;;;13.48;;
69417;SDS011;56610;48.872;2.400;2023-02-23T01:33:15;13.32;;;12.02;;
69417;SDS011;56610;48.872;2.400;2023-02-23T01:35:41;15.27;;;13.30;;
69417;SDS011;56610;48.872;2.400;2023-02-23T01:38:08;12.73;;;11.35;;
69417;SDS011;56610;48.872;2.400;2023-02-23T01:40:34;13.23;;;11.55;;
69417;SDS011;56610;48.872;2.400;2023-02-23T01:43:11;13.82;;;12.27;;
69417;SDS011;56610;48.872;2.400;2023-02-23T01:45:39;13.90;;;11.48;;
69417;SDS011;56610;48.872;2.400;2023-02-23T01:48:06;13.18;;;11.77;;
69417;SDS011;56610;48.872;2.400;2023-02-23T01:50:56;12.13;;;11.00;;
69417;SDS011;56610;48.872;2.400;2023-02-23T01:53:35;11.98;;;10.77;;
69417;SDS011;56610;48.872;2.400;2023-02-23T01:56:12;16.70;;;11.88;;
69417;SDS011;56610;48.872;2.400;2023-02-23T01:58:43;12.77;;;11.45;;
69417;SDS011;56610;48.872;2.400;2023-02-23T02:01:10;12.20;;;10.80;;
69417;SDS011;56610;48.872;2.400;2023-02-23T02:03:38;12.35;;;10.98;;
69417;SDS011;56610;48.872;2.400;2023-02-23T02:06:07;14.05;;;10.80;;
69417;SDS011;56610;48.872;2.400;2023-02-23T02:08:37;10.73;;;9.60;;
69417;SDS011;56610;48.872;2.400;2023-02-23T02:11:15;12.77;;;11.05;;
69417;SDS011;56610;48.872;2.400;2023-02-23T02:14:07;13.77;;;12.35;;
69417;SDS011;56610;48.872;2.400;2023-02-23T02:25:00;12.93;;;11.73;;
69417;SDS011;56610;48.872;2.400;2023-02-23T02:36:36;11.70;;;10.60;;
69417;SDS011;56610;48.872;2.400;2023-02-23T02:39:40;13.63;;;12.18;;
69417;SDS011;56610;48.872;2.400;2023-02-23T02:51:07;14.20;;;11.20;;
69417;SDS011;56610;48.872;2.400;2023-02-23T02:53:46;14.48;;;12.98;;
69417;SDS011;56610;48.872;2.400;2023-02-23T02:56:14;13.18;;;11.77;;
69417;SDS011;56610;48.872;2.400;2023-02-23T02:58:43;12.77;;;11.43;;
69417;SDS011;56610;48.872;2.400;2023-02-23T03:01:14;13.25;;;11.95;;
69417;SDS011;56610;48.872;2.400;2023-02-23T03:04:00;13.77;;;12.27;;
69417;SDS011;56610;48.872;2.400;2023-02-23T03:10:19;11.20;;;10.00;;
69417;SDS011;56610;48.872;2.400;2023-02-23T03:16:31;11.30;;;9.95;;
69417;SDS011;56610;48.872;2.400;2023-02-23T03:19:31;11.52;;;9.68;;
69417;SDS011;56610;48.872;2.400;2023-02-23T03:22:25;11.50;;;10.30;;
69417;SDS011;56610;48.872;2.400;2023-02-23T03:25:16;11.65;;;9.57;;
69417;SDS011;56610;48.872;2.400;2023-02-23T03:31:19;12.20;;;10.90;;
69417;SDS011;56610;48.872;2.400;2023-02-23T03:34:13;13.07;;;10.02;;
69417;SDS011;56610;48.872;2.400;2023-02-23T03:37:02;12.88;;;10.20;;
69417;SDS011;56610;48.872;2.400;2023-02-23T03:40:12;12.25;;;10.93;;
69417;SDS011;56610;48.872;2.400;2023-02-23T03:43:07;14.93;;;11.52;;
69417;SDS011;56610;48.872;2.400;2023-02-23T03:45:55;11.10;;;9.50;;
69417;SDS011;56610;48.872;2.400;2023-02-23T03:48:43;13.98;;;10.70;;
69417;SDS011;56610;48.872;2.400;2023-02-23T03:51:29;11.43;;;9.27;;
69417;SDS011;56610;48.872;2.400;2023-02-23T03:54:24;9.65;;;8.70;;
69417;SDS011;56610;48.872;2.400;2023-02-23T03:57:17;11.10;;;9.35;;
69417;SDS011;56610;48.872;2.400;2023-02-23T04:00:05;12.23;;;9.53;;
69417;SDS011;56610;48.872;2.400;2023-02-23T04:02:54;10.85;;;8.55;;
69417;SDS011;56610;48.872;2.400;2023-02-23T04:05:41;9.27;;;7.60;;
69417;SDS011;56610;48.872;2.400;2023-02-23T04:08:32;8.90;;;7.28;;
69417;SDS011;56610;48.872;2.400;2023-02-23T04:11:22;7.72;;;6.90;;
69417;SDS011;56610;48.872;2.400;2023-02-23T04:14:24;9.05;;;8.25;;
69417;SDS011;56610;48.872;2.400;2023-02-23T04:16:55;7.53;;;6.68;;
69417;SDS011;56610;48.872;2.400;2023-02-23T04:19:22;10.73;;;8.68;;
69417;SDS011;56610;48.872;2.400;2023-02-23T04:21:52;8.13;;;7.32;;
69417;SDS011;56610;48.872;2.400;2023-02-23T04:24:17;8.20;;;7.28;;
69417;SDS011;56610;48.872;2.400;2023-02-23T04:26:43;8.68;;;7.65;;
69417;SDS011;56610;48.872;2.400;2023-02-23T04:29:09;7.72;;;6.95;;
69417;SDS011;56610;48.872;2.400;2023-02-23T04:31:36;8.80;;;7.63;;
69417;SDS011;56610;48.872;2.400;2023-02-23T04:34:02;10.15;;;8.40;;
69417;SDS011;56610;48.872;2.400;2023-02-23T04:36:28;9.07;;;8.13;;
69417;SDS011;56610;48.872;2.400;2023-02-23T04:38:55;9.32;;;8.43;;
69417;SDS011;56610;48.872;2.400;2023-02-23T04:41:21;9.50;;;8.60;;
69417;SDS011;56610;48.872;2.400;2023-02-23T04:43:46;10.27;;;8.75;;
69417;SDS011;56610;48.872;2.400;2023-02-23T04:46:12;10.77;;;8.73;;
69417;SDS011;56610;48.872;2.400;2023-02-23T04:48:38;9.88;;;8.88;;
69417;SDS011;56610;48.872;2.400;2023-02-23T04:51:03;9.13;;;8.23;;
69417;SDS011;56610;48.872;2.400;2023-02-23T04:53:29;9.85;;;8.45;;
69417;SDS011;56610;48.872;2.400;2023-02-23T04:55:55;9.25;;;8.35;;
69417;SDS011;56610;48.872;2.400;2023-02-23T04:58:20;8.52;;;7.60;;
69417;SDS011;56610;48.872;2.400;2023-02-23T05:00:46;8.15;;;7.35;;
69417;SDS011;56610;48.872;2.400;2023-02-23T05:03:12;9.73;;;8.75;;
69417;SDS011;56610;48.872;2.400;2023-02-23T05:05:38;9.32;;;8.43;;
69417;SDS011;56610;48.872;2.400;2023-02-23T05:08:03;9.68;;;8.77;;
69417;SDS011;56610;48.872;2.400;2023-02-23T05:10:30;10.90;;;9.80;;
69417;SDS011;56610;48.872;2.400;2023-02-23T05:12:56;10.23;;;8.90;;
69417;SDS011;56610;48.872;2.400;2023-02-23T05:15:22;9.50;;;8.60;;
69417;SDS011;56610;48.872;2.400;2023-02-23T05:17:47;9.93;;;8.98;;
69417;SDS011;56610;48.872;2.400;2023-02-23T05:20:13;10.38;;;8.82;;
69417;SDS011;56610;48.872;2.400;2023-02-23T05:22:40;9.05;;;7.95;;
69417;SDS011;56610;48.872;2.400;2023-02-23T05:25:06;9.88;;;8.50;;
69417;SDS011;56610;48.872;2.400;2023-02-23T05:27:34;9.02;;;7.60;;
69417;SDS011;56610;48.872;2.400;2023-02-23T05:30:00;11.05;;;9.82;;
69417;SDS011;56610;48.872;2.400;2023-02-23T05:32:26;11.00;;;9.38;;
69417;SDS011;56610;48.872;2.400;2023-02-23T05:34:52;11.95;;;10.25;;
69417;SDS011;56610;48.872;2.400;2023-02-23T05:37:18;11.23;;;10.13;;
69417;SDS011;56610;48.872;2.400;2023-02-23T05:39:45;10.68;;;9.32;;
69417;SDS011;56610;48.872;2.400;2023-02-23T05:42:11;12.40;;;9.95;;
69417;SDS011;56610;48.872;2.400;2023-02-23T05:44:36;12.90;;;10.88;;
69417;SDS011;56610;48.872;2.400;2023-02-23T05:47:03;10.05;;;9.07;;
69417;SDS011;56610;48.872;2.400;2023-02-23T05:49:28;10.55;;;9.43;;
69417;SDS011;56610;48.872;2.400;2023-02-23T05:51:54;9.73;;;8.73;;
69417;SDS011;56610;48.872;2.400;2023-02-23T05:54:20;9.52;;;8.63;;
69417;SDS011;56610;48.872;2.400;2023-02-23T05:56:46;11.80;;;9.10;;
69417;SDS011;56610;48.872;2.400;2023-02-23T05:59:11;11.32;;;10.05;;
69417;SDS011;56610;48.872;2.400;2023-02-23T06:01:37;9.70;;;8.70;;
69417;SDS011;56610;48.872;2.400;2023-02-23T06:04:03;12.10;;;9.93;;
69417;SDS011;56610;48.872;2.400;2023-02-23T06:06:29;11.35;;;9.70;;
69417;SDS011;56610;48.872;2.400;2023-02-23T06:08:55;10.98;;;9.48;;
69417;SDS011;56610;48.872;2.400;2023-02-23T06:11:21;9.40;;;8.40;;
69417;SDS011;56610;48.872;2.400;2023-02-23T06:13:46;11.23;;;9.95;;
69417;SDS011;56610;48.872;2.400;2023-02-23T06:16:12;10.73;;;9.23;;
69417;SDS011;56610;48.872;2.400;2023-02-23T06:18:38;11.52;;;9.50;;
69417;SDS011;56610;48.872;2.400;2023-02-23T06:21:04;10.68;;;9.18;;
69417;SDS011;56610;48.872;2.400;2023-02-23T06:23:30;9.05;;;8.13;;
69417;SDS011;56610;48.872;2.400;2023-02-23T06:25:56;9.90;;;8.90;;
69417;SDS011;56610;48.872;2.400;2023-02-23T06:28:23;10.20;;;8.93;;
69417;SDS011;56610;48.872;2.400;2023-02-23T06:30:53;10.23;;;9.23;;
69417;SDS011;56610;48.872;2.400;2023-02-23T06:33:19;10.77;;;9.70;;
69417;SDS011;56610;48.872;2.400;2023-02-23T06:35:45;11.63;;;10.40;;
69417;SDS011;56610;48.872;2.400;2023-02-23T06:38:11;10.13;;;9.13;;
69417;SDS011;56610;48.872;2.400;2023-02-23T06:40:37;10.25;;;9.20;;
69417;SDS011;56610;48.872;2.400;2023-02-23T06:43:03;9.70;;;8.30;;
69417;SDS011;56610;48.872;2.400;2023-02-23T06:45:30;9.80;;;8.88;;
69417;SDS011;56610;48.872;2.400;2023-02-23T06:47:56;8.73;;;7.82;;
69417;SDS011;56610;48.872;2.400;2023-02-23T06:50:23;8.88;;;8.07;;
69417;SDS011;56610;48.872;2.400;2023-02-23T06:52:48;9.77;;;8.88;;
69417;SDS011;56610;48.872;2.400;2023-02-23T06:55:14;8.88;;;8.07;;
69417;SDS011;56610;48.872;2.400;2023-02-23T06:57:41;11.98;;;10.50;;
69417;SDS011;56610;48.872;2.400;2023-02-23T07:00:08;12.35;;;11.05;;
69417;SDS011;56610;48.872;2.400;2023-02-23T07:02:35;12.50;;;11.40;;
69417;SDS011;56610;48.872;2.400;2023-02-23T07:05:02;14.25;;;12.95;;
69417;SDS011;56610;48.872;2.400;2023-02-23T07:07:28;13.98;;;12.45;;
69417;SDS011;56610;48.872;2.400;2023-02-23T07:09:54;13.73;;;12.32;;
69417;SDS011;56610;48.872;2.400;2023-02-23T07:12:19;14.70;;;13.27;;
69417;SDS011;56610;48.872;2.400;2023-02-23T07:14:45;14.48;;;13.07;;
69417;SDS011;56610;48.872;2.400;2023-02-23T07:17:11;15.32;;;13.73;;
69417;SDS011;56610;48.872;2.400;2023-02-23T07:19:37;14.38;;;13.07;;
69417;SDS011;56610;48.872;2.400;2023-02-23T07:22:02;12.70;;;11.50;;
69417;SDS011;56610;48.872;2.400;2023-02-23T07:24:29;14.15;;;12.80;;
69417;SDS011;56610;48.872;2.400;2023-02-23T07:26:54;14.48;;;13.10;;
69417;SDS011;56610;48.872;2.400;2023-02-23T07:29:20;14.85;;;13.38;;
69417;SDS011;56610;48.872;2.400;2023-02-23T07:31:48;15.35;;;13.85;;
69417;SDS011;56610;48.872;2.400;2023-02-23T07:34:14;13.85;;;12.65;;
69417;SDS011;56610;48.872;2.400;2023-02-23T07:36:39;15.00;;;13.60;;
69417;SDS011;56610;48.872;2.400;2023-02-23T07:39:05;12.65;;;11.45;;
69417;SDS011;56610;48.872;2.400;2023-02-23T07:41:32;12.65;;;11.40;;
69417;SDS011;56610;48.872;2.400;2023-02-23T07:43:58;11.82;;;10.70;;
69417;SDS011;56610;48.872;2.400;2023-02-23T07:46:24;10.73;;;9.70;;
69417;SDS011;56610;48.872;2.400;2023-02-23T07:48:50;10.68;;;9.48;;
69417;SDS011;56610;48.872;2.400;2023-02-23T07:51:17;10.88;;;9.77;;
69417;SDS011;56610;48.872;2.400;2023-02-23T07:53:43;9.93;;;9.00;;
69417;SDS011;56610;48.872;2.400;2023-02-23T07:56:09;9.55;;;8.65;;
69417;SDS011;56610;48.872;2.400;2023-02-23T07:58:36;8.38;;;7.68;;
69417;SDS011;56610;48.872;2.400;2023-02-23T08:01:03;9.73;;;8.73;;
69417;SDS011;56610;48.872;2.400;2023-02-23T08:03:29;8.80;;;7.72;;
69417;SDS011;56610;48.872;2.400;2023-02-23T08:05:55;9.70;;;8.80;;
69417;SDS011;56610;48.872;2.400;2023-02-23T08:08:21;10.18;;;9.18;;
69417;SDS011;56610;48.872;2.400;2023-02-23T08:10:46;9.15;;;8.25;;
69417;SDS011;56610;48.872;2.400;2023-02-23T08:13:15;8.50;;;7.70;;
69417;SDS011;56610;48.872;2.400;2023-02-23T08:15:42;12.30;;;7.40;;
69417;SDS011;56610;48.872;2.400;2023-02-23T08:18:08;10.23;;;7.45;;
69417;SDS011;56610;48.872;2.400;2023-02-23T08:20:33;8.15;;;7.35;;
69417;SDS011;56610;48.872;2.400;2023-02-23T08:22:59;8.02;;;6.80;;
69417;SDS011;56610;48.872;2.400;2023-02-23T08:25:25;7.63;;;6.80;;
69417;SDS011;56610;48.872;2.400;2023-02-23T08:27:54;8.05;;;6.60;;
69417;SDS011;56610;48.872;2.400;2023-02-23T08:30:20;7.60;;;6.57;;
69417;SDS011;56610;48.872;2.400;2023-02-23T08:32:48;7.35;;;6.75;;
69417;SDS011;56610;48.872;2.400;2023-02-23T08:35:15;7.50;;;6.60;;
69417;SDS011;56610;48.872;2.400;2023-02-23T08:37:44;7.25;;;6.55;;
69417;SDS011;56610;48.872;2.400;2023-02-23T08:40:10;8.13;;;6.72;;
69417;SDS011;56610;48.872;2.400;2023-02-23T08:42:39;8.10;;;7.30;;
69417;SDS011;56610;48.872;2.400;2023-02-23T08:45:05;8.55;;;7.45;;
69417;SDS011;56610;48.872;2.400;2023-02-23T08:47:34;10.13;;;7.93;;
69417;SDS011;56610;48.872;2.400;2023-02-23T08:50:00;9.52;;;8.30;;
69417;SDS011;56610;48.872;2.400;2023-02-23T08:52:26;9.57;;;8.07;;
69417;SDS011;56610;48.872;2.400;2023-02-23T08:54:52;8.68;;;7.88;;
69417;SDS011;56610;48.872;2.400;2023-02-23T08:57:19;9.15;;;7.90;;
69417;SDS011;56610;48.872;2.400;2023-02-23T08:59:45;8.95;;;7.60;;
69417;SDS011;56610;48.872;2.400;2023-02-23T09:02:11;8.82;;;8.02;;
69417;SDS011;56610;48.872;2.400;2023-02-23T09:04:38;9.25;;;8.35;;
69417;SDS011;56610;48.872;2.400;2023-02-23T09:07:06;8.73;;;7.93;;
69417;SDS011;56610;48.872;2.400;2023-02-23T09:09:33;8.90;;;8.00;;
69417;SDS011;56610;48.872;2.400;2023-02-23T09:11:59;12.88;;;7.82;;
69417;SDS011;56610;48.872;2.400;2023-02-23T09:14:25;7.72;;;6.85;;
69417;SDS011;56610;48.872;2.400;2023-02-23T09:16:51;9.43;;;8.52;;
69417;SDS011;56610;48.872;2.400;2023-02-23T09:19:16;8.80;;;7.90;;
69417;SDS011;56610;48.872;2.400;2023-02-23T09:21:42;9.48;;;8.68;;
69417;SDS011;56610;48.872;2.400;2023-02-23T09:24:08;8.35;;;7.43;;
69417;SDS011;56610;48.872;2.400;2023-02-23T09:26:34;9.02;;;7.97;;
69417;SDS011;56610;48.872;2.400;2023-02-23T09:29:04;11.30;;;10.00;;
69417;SDS011;56610;48.872;2.400;2023-02-23T09:31:31;11.75;;;10.55;;
69417;SDS011;56610;48.872;2.400;2023-02-23T09:33:57;10.73;;;9.60;;
69417;SDS011;56610;48.872;2.400;2023-02-23T09:36:25;9.75;;;8.73;;
69417;SDS011;56610;48.872;2.400;2023-02-23T09:38:53;10.50;;;9.23;;
69417;SDS011;56610;48.872;2.400;2023-02-23T09:49:38;9.85;;;8.95;;
69417;SDS011;56610;48.872;2.400;2023-02-23T09:52:08;12.48;;;9.27;;
69417;SDS011;56610;48.872;2.400;2023-02-23T09:54:49;9.98;;;9.07;;
69417;SDS011;56610;48.872;2.400;2023-02-23T09:57:23;12.38;;;10.32;;
69417;SDS011;56610;48.872;2.400;2023-02-23T09:59:57;11.63;;;10.40;;
69417;SDS011;56610;48.872;2.400;2023-02-23T10:02:25;11.55;;;10.07;;
69417;SDS011;56610;48.872;2.400;2023-02-23T10:05:00;11.20;;;10.00;;
69417;SDS011;56610;48.872;2.400;2023-02-23T10:12:41;12.98;;;11.65;;
69417;SDS011;56610;48.872;2.400;2023-02-23T10:20:56;11.65;;;10.55;;
69417;SDS011;56610;48.872;2.400;2023-02-23T10:23:33;12.90;;;11.70;;
69417;SDS011;56610;48.872;2.400;2023-02-23T10:26:04;13.43;;;11.80;;
69417;SDS011;56610;48.872;2.400;2023-02-23T10:28:39;12.85;;;11.13;;
69417;SDS011;56610;48.872;2.400;2023-02-23T10:34:14;13.50;;;12.25;;
69417;SDS011;56610;48.872;2.400;2023-02-23T10:36:52;11.90;;;10.70;;
69417;SDS011;56610;48.872;2.400;2023-02-23T10:39:24;12.77;;;11.48;;
69417;SDS011;56610;48.872;2.400;2023-02-23T10:41:50;13.35;;;12.02;;
69417;SDS011;56610;48.872;2.400;2023-02-23T10:44:18;12.88;;;11.65;;
69417;SDS011;56610;48.872;2.400;2023-02-23T10:46:49;12.32;;;11.13;;
69417;SDS011;56610;48.872;2.400;2023-02-23T10:52:16;11.98;;;10.88;;
69417;SDS011;56610;48.872;2.400;2023-02-23T10:54:46;13.10;;;11.60;;
69417;SDS011;56610;48.872;2.400;2023-02-23T10:57:23;12.35;;;10.95;;
69417;SDS011;56610;48.872;2.400;2023-02-23T11:02:41;13.20;;;11.93;;
69417;SDS011;56610;48.872;2.400;2023-02-23T11:05:25;12.48;;;11.25;;
69417;SDS011;56610;48.872;2.400;2023-02-23T11:08:29;12.18;;;10.15;;
69417;SDS011;56610;48.872;2.400;2023-02-23T11:13:49;13.02;;;11.80;;
69417;SDS011;56610;48.872;2.400;2023-02-23T11:16:28;11.27;;;10.13;;
69417;SDS011;56610;48.872;2.400;2023-02-23T11:19:02;10.93;;;9.93;;
69417;SDS011;56610;48.872;2.400;2023-02-23T11:21:33;13.65;;;11.90;;
69417;SDS011;56610;48.872;2.400;2023-02-23T11:24:24;12.00;;;10.88;;
69417;SDS011;56610;48.872;2.400;2023-02-23T11:26:50;11.35;;;10.23;;
69417;SDS011;56610;48.872;2.400;2023-02-23T11:32:06;15.50;;;13.35;;
69417;SDS011;56610;48.872;2.400;2023-02-23T11:35:10;14.15;;;12.75;;
69417;SDS011;56610;48.872;2.400;2023-02-23T11:37:45;12.50;;;11.23;;
69417;SDS011;56610;48.872;2.400;2023-02-23T11:40:32;13.32;;;12.02;;
69417;SDS011;56610;48.872;2.400;2023-02-23T11:45:48;12.88;;;11.68;;
69417;SDS011;56610;48.872;2.400;2023-02-23T11:48:32;15.07;;;13.63;;
69417;SDS011;56610;48.872;2.400;2023-02-23T11:51:02;14.07;;;12.85;;
69417;SDS011;56610;48.872;2.400;2023-02-23T11:56:13;16.42;;;14.75;;
69417;SDS011;56610;48.872;2.400;2023-02-23T11:58:47;13.57;;;12.27;;
69417;SDS011;56610;48.872;2.400;2023-02-23T12:01:16;14.38;;;12.90;;
69417;SDS011;56610;48.872;2.400;2023-02-23T12:04:08;10.93;;;9.82;;
69417;SDS011;56610;48.872;2.400;2023-02-23T12:12:50;12.43;;;11.23;;
69417;SDS011;56610;48.872;2.400;2023-02-23T12:15:27;12.57;;;11.48;;
69417;SDS011;56610;48.872;2.400;2023-02-23T12:21:31;11.00;;;9.90;;
69417;SDS011;56610;48.872;2.400;2023-02-23T12:24:15;10.60;;;9.70;;
69417;SDS011;56610;48.872;2.400;2023-02-23T12:32:23;9.57;;;8.77;;
69417;SDS011;56610;48.872;2.400;2023-02-23T12:34:54;10.73;;;9.73;;
69417;SDS011;56610;48.872;2.400;2023-02-23T12:45:53;10.43;;;9.43;;
69417;SDS011;56610;48.872;2.400;2023-02-23T12:48:34;10.13;;;9.05;;
69417;SDS011;56610;48.872;2.400;2023-02-23T12:51:24;8.35;;;7.65;;
69417;SDS011;56610;48.872;2.400;2023-02-23T12:53:56;10.27;;;8.85;;
69417;SDS011;56610;48.872;2.400;2023-02-23T12:59:18;9.88;;;8.60;;
69417;SDS011;56610;48.872;2.400;2023-02-23T13:01:53;9.73;;;8.73;;
69417;SDS011;56610;48.872;2.400;2023-02-23T13:07:12;8.65;;;7.85;;
69417;SDS011;56610;48.872;2.400;2023-02-23T13:17:59;8.38;;;7.68;;
69417;SDS011;56610;48.872;2.400;2023-02-23T13:20:36;9.75;;;8.13;;
69417;SDS011;56610;48.872;2.400;2023-02-23T13:26:25;7.95;;;7.25;;
69417;SDS011;56610;48.872;2.400;2023-02-23T13:31:58;9.38;;;8.48;;
69417;SDS011;56610;48.872;2.400;2023-02-23T13:34:26;12.68;;;9.15;;
69417;SDS011;56610;48.872;2.400;2023-02-23T13:36:57;9.20;;;8.30;;
69417;SDS011;56610;48.872;2.400;2023-02-23T13:56:09;8.05;;;7.25;;
69417;SDS011;56610;48.872;2.400;2023-02-23T13:58:54;8.15;;;7.35;;
69417;SDS011;56610;48.872;2.400;2023-02-23T14:01:31;7.88;;;7.18;;
69417;SDS011;56610;48.872;2.400;2023-02-23T14:04:02;8.27;;;7.57;;
69417;SDS011;56610;48.872;2.400;2023-02-23T14:06:36;8.45;;;7.57;;
69417;SDS011;56610;48.872;2.400;2023-02-23T14:14:13;9.52;;;8.55;;
69417;SDS011;56610;48.872;2.400;2023-02-23T14:19:40;9.13;;;8.32;;
69417;SDS011;56610;48.872;2.400;2023-02-23T14:22:25;8.60;;;7.80;;
69417;SDS011;56610;48.872;2.400;2023-02-23T14:27:59;8.80;;;7.87;;
69417;SDS011;56610;48.872;2.400;2023-02-23T14:30:46;8.60;;;7.80;;
69417;SDS011;56610;48.872;2.400;2023-02-23T14:41:24;9.77;;;7.65;;
69417;SDS011;56610;48.872;2.400;2023-02-23T14:44:04;6.85;;;6.25;;
69417;SDS011;56610;48.872;2.400;2023-02-23T14:46:32;8.30;;;7.43;;
69417;SDS011;56610;48.872;2.400;2023-02-23T14:49:05;8.45;;;7.63;;
69417;SDS011;56610;48.872;2.400;2023-02-23T14:54:12;7.03;;;6.28;;
69417;SDS011;56610;48.872;2.400;2023-02-23T14:56:55;6.72;;;6.13;;
69417;SDS011;56610;48.872;2.400;2023-02-23T14:59:24;6.07;;;5.57;;
69417;SDS011;56610;48.872;2.400;2023-02-23T15:01:52;6.68;;;6.00;;
69417;SDS011;56610;48.872;2.400;2023-02-23T15:04:20;6.95;;;5.78;;
69417;SDS011;56610;48.872;2.400;2023-02-23T15:06:47;7.03;;;6.32;;
69417;SDS011;56610;48.872;2.400;2023-02-23T15:12:12;6.10;;;5.50;;
69417;SDS011;56610;48.872;2.400;2023-02-23T15:14:42;5.70;;;5.20;;
69417;SDS011;56610;48.872;2.400;2023-02-23T15:17:12;6.50;;;5.32;;
69417;SDS011;56610;48.872;2.400;2023-02-23T15:19:41;5.40;;;4.90;;
69417;SDS011;56610;48.872;2.400;2023-02-23T15:22:13;5.95;;;4.75;;
69417;SDS011;56610;48.872;2.400;2023-02-23T15:24:48;5.60;;;4.53;;
69417;SDS011;56610;48.872;2.400;2023-02-23T15:27:18;5.30;;;4.78;;
69417;SDS011;56610;48.872;2.400;2023-02-23T15:29:49;5.22;;;4.82;;
69417;SDS011;56610;48.872;2.400;2023-02-23T15:32:19;5.60;;;4.82;;
69417;SDS011;56610;48.872;2.400;2023-02-23T15:34:49;5.38;;;4.88;;
69417;SDS011;56610;48.872;2.400;2023-02-23T15:42:26;6.32;;;5.10;;
69417;SDS011;56610;48.872;2.400;2023-02-23T15:45:00;5.55;;;5.10;;
69417;SDS011;56610;48.872;2.400;2023-02-23T15:47:30;8.00;;;5.32;;
69417;SDS011;56610;48.872;2.400;2023-02-23T15:50:06;6.35;;;5.75;;
69417;SDS011;56610;48.872;2.400;2023-02-23T15:52:47;5.38;;;4.88;;
69417;SDS011;56610;48.872;2.400;2023-02-23T15:55:28;5.95;;;5.35;;
69417;SDS011;56610;48.872;2.400;2023-02-23T15:57:59;6.22;;;4.97;;
69417;SDS011;56610;48.872;2.400;2023-02-23T16:00:38;5.40;;;4.90;;
69417;SDS011;56610;48.872;2.400;2023-02-23T16:03:05;5.53;;;5.00;;
69417;SDS011;56610;48.872;2.400;2023-02-23T16:08:25;5.38;;;4.88;;
69417;SDS011;56610;48.872;2.400;2023-02-23T16:10:59;5.82;;;5.22;;
69417;SDS011;56610;48.872;2.400;2023-02-23T16:13:41;5.82;;;5.32;;
69417;SDS011;56610;48.872;2.400;2023-02-23T16:16:09;5.57;;;5.05;;
69417;SDS011;56610;48.872;2.400;2023-02-23T16:18:43;5.93;;;5.25;;
69417;SDS011;56610;48.872;2.400;2023-02-23T16:21:19;6.10;;;5.60;;
69417;SDS011;56610;48.872;2.400;2023-02-23T16:23:48;5.72;;;5.03;;
69417;SDS011;56610;48.872;2.400;2023-02-23T16:29:24;7.93;;;5.70;;
69417;SDS011;56610;48.872;2.400;2023-02-23T16:32:02;6.38;;;5.78;;
69417;SDS011;56610;48.872;2.400;2023-02-23T16:34:58;5.68;;;5.18;;
69417;SDS011;56610;48.872;2.400;2023-02-23T16:37:25;6.78;;;5.65;;
69417;SDS011;56610;48.872;2.400;2023-02-23T16:39:51;6.55;;;5.95;;
69417;SDS011;56610;48.872;2.400;2023-02-23T16:42:22;6.53;;;5.80;;
69417;SDS011;56610;48.872;2.400;2023-02-23T16:44:57;5.72;;;5.22;;
69417;SDS011;56610;48.872;2.400;2023-02-23T16:47:31;6.10;;;5.60;;
69417;SDS011;56610;48.872;2.400;2023-02-23T16:50:12;6.13;;;5.60;;
69417;SDS011;56610;48.872;2.400;2023-02-23T16:52:43;6.28;;;5.68;;
69417;SDS011;56610;48.872;2.400;2023-02-23T16:55:13;6.20;;;5.70;;
69417;SDS011;56610;48.872;2.400;2023-02-23T16:57:44;6.80;;;5.75;;
69417;SDS011;56610;48.872;2.400;2023-02-23T17:00:13;7.93;;;5.78;;
69417;SDS011;56610;48.872;2.400;2023-02-23T17:02:44;6.20;;;5.60;;
69417;SDS011;56610;48.872;2.400;2023-02-23T17:05:14;6.75;;;6.05;;
69417;SDS011;56610;48.872;2.400;2023-02-23T17:07:43;6.53;;;5.93;;
69417;SDS011;56610;48.872;2.400;2023-02-23T17:10:13;6.40;;;5.78;;
69417;SDS011;56610;48.872;2.400;2023-02-23T17:12:49;6.97;;;6.28;;
69417;SDS011;56610;48.872;2.400;2023-02-23T17:15:22;6.60;;;5.97;;
69417;SDS011;56610;48.872;2.400;2023-02-23T17:17:51;7.30;;;6.07;;
69417;SDS011;56610;48.872;2.400;2023-02-23T17:20:20;5.80;;;5.30;;
69417;SDS011;56610;48.872;2.400;2023-02-23T17:22:49;6.90;;;6.22;;
69417;SDS011;56610;48.872;2.400;2023-02-23T17:25:16;6.72;;;6.00;;
69417;SDS011;56610;48.872;2.400;2023-02-23T17:27:42;6.15;;;5.60;;
69417;SDS011;56610;48.872;2.400;2023-02-23T17:30:08;6.75;;;5.93;;
69417;SDS011;56610;48.872;2.400;2023-02-23T17:32:35;6.65;;;6.05;;
69417;SDS011;56610;48.872;2.400;2023-02-23T17:35:01;6.32;;;5.72;;
69417;SDS011;56610;48.872;2.400;2023-02-23T17:37:27;6.88;;;6.18;;
69417;SDS011;56610;48.872;2.400;2023-02-23T17:39:52;7.00;;;6.20;;
69417;SDS011;56610;48.872;2.400;2023-02-23T17:42:18;7.40;;;6.70;;
69417;SDS011;56610;48.872;2.400;2023-02-23T17:44:44;7.45;;;6.75;;
69417;SDS011;56610;48.872;2.400;2023-02-23T17:47:09;8.73;;;7.93;;
69417;SDS011;56610;48.872;2.400;2023-02-23T17:49:35;7.00;;;6.40;;
69417;SDS011;56610;48.872;2.400;2023-02-23T17:52:01;7.28;;;6.18;;
69417;SDS011;56610;48.872;2.400;2023-02-23T17:54:28;6.88;;;6.20;;